Torrente — A8VQ2 — position and weather

sailwx.info

Track history (hours):
 
Tides and Currents Weather Stations Pressure Air Temp Water Temp Dewpoint Dewpoint Depression Visibility Wind Speed Wind Dir Waves Ship Positions

Torrente

Last reported at 2018-Feb-21 14:21 UTC. Time now 2018-Feb-22 20:45 UTC.
Position N 36°00' W 005°15'.

Length 300 m; draft 13.5 m.

Type: Ship (hazmat cat A). MMSI: 636014649.

Date/timePositionNaut miles runAvg speedWind from/ knotsBaromVisibWave heightAir tempDewpointWater temp
2018-Feb-21 14:21N 36°00' W 005°15'822.8
2018-Feb-21 14:00N 35°58' W 005°24'6 0.5
2018-Feb-21 03:07N 35°54' W 005°29'0 0.0
2018-Feb-21 02:59N 35°54' W 005°29'0 0.0
2018-Feb-20 23:11N 35°54' W 005°29'0 0.1
2018-Feb-20 22:59N 35°54' W 005°29'155 5.3
2018-Feb-19 17:37N 36°25' W 008°38'1711.1
2018-Feb-19 16:05N 36°29' W 008°58'110.7
2018-Feb-19 16:00N 36°30' W 008°59'2810.4
2018-Feb-19 13:17N 36°44' W 009°29'311.0
2018-Feb-19 12:59N 36°47' W 009°32'710.5
2018-Feb-19 12:20N 36°54' W 009°35'1911.1
2018-Feb-19 10:39N 37°12' W 009°40'211.0
2018-Feb-19 10:30N 37°13' W 009°40'511.0
2018-Feb-19 10:00N 37°19' W 009°42'611.7
2018-Feb-19 09:31N 37°24' W 009°44'611.8
2018-Feb-19 09:00N 37°30' W 009°45'612.0
2018-Feb-19 08:30N 37°36' W 009°47'611.8
2018-Feb-19 08:01N 37°41' W 009°49'611.9
2018-Feb-19 07:30N 37°47' W 009°51'611.7
2018-Feb-19 07:00N 37°53' W 009°53'611.8
2018-Feb-19 06:30N 37°59' W 009°55'611.5
2018-Feb-19 06:00N 38°04' W 009°57'611.5
2018-Feb-19 05:30N 38°10' W 009°57'611.9
2018-Feb-19 05:00N 38°16' W 009°59'611.9
2018-Feb-19 04:30N 38°21' W 010°01'612.0
2018-Feb-19 04:01N 38°27' W 010°04'611.8
2018-Feb-19 03:30N 38°33' W 010°05'611.9
2018-Feb-19 03:00N 38°39' W 010°06'611.9
2018-Feb-19 02:31N 38°45' W 010°06'611.9
2018-Feb-19 02:01N 38°51' W 010°06'611.7
2018-Feb-19 01:30N 38°57' W 010°06'611.9
2018-Feb-19 01:00N 39°02' W 010°06'612.2
2018-Feb-19 00:31N 39°08' W 010°06'612.1
2018-Feb-19 00:00N 39°15' W 010°06'611.9
2018-Feb-18 23:30N 39°20' W 010°07'611.5
2018-Feb-18 23:00N 39°26' W 010°07'611.6
2018-Feb-18 22:30N 39°32' W 010°07'611.5
2018-Feb-18 22:00N 39°38' W 010°07'611.6
2018-Feb-18 21:31N 39°43' W 010°07'611.5
2018-Feb-18 21:00N 39°49' W 010°07'611.5
2018-Feb-18 20:30N 39°55' W 010°06'611.7
2018-Feb-18 20:00N 40°01' W 010°06'54813.1
2018-Feb-17 02:09N 48°40' W 005°60'213.8
2018-Feb-17 02:00N 48°42' W 005°58'713.9
2018-Feb-17 01:30N 48°48' W 005°53'11412.5
2018-Feb-16 16:21N 49°48' W 003°24'511.6
2018-Feb-16 15:54N 49°51' W 003°18'512.4
2018-Feb-16 15:30N 49°54' W 003°11'713.0
2018-Feb-16 15:00N 49°57' W 003°03'713.7
2018-Feb-16 14:30N 50°00' W 002°53'714.5
2018-Feb-16 14:00N 50°02' W 002°42'814.8
2018-Feb-16 13:30N 50°05' W 002°31'1114.5
2018-Feb-16 12:45N 50°08' W 002°14'414.0
2018-Feb-16 12:29N 50°09' W 002°09'613.3
2018-Feb-16 12:00N 50°10' W 001°59'612.3
2018-Feb-16 11:30N 50°12' W 001°50'611.3
2018-Feb-16 11:00N 50°13' W 001°41'510.5
2018-Feb-16 10:30N 50°15' W 001°34'5 9.4
2018-Feb-16 10:00N 50°16' W 001°27'4 8.8
2018-Feb-16 09:30N 50°17' W 001°20'4 8.3
2018-Feb-16 08:59N 50°19' W 001°14'16 8.3
2018-Feb-16 07:03N 50°23' W 000°49'0 9.6
2018-Feb-16 07:00N 50°23' W 000°49'610.4
2018-Feb-16 06:27N 50°25' W 000°40'510.8
2018-Feb-16 06:00N 50°27' W 000°33'511.0
2018-Feb-16 05:30N 50°31' W 000°26'3 6.9
2018-Feb-16 05:00N 50°33' W 000°22'0 0.4
2018-Feb-16 04:31N 50°33' W 000°22'1 1.4
2018-Feb-16 04:01N 50°32' W 000°21'3 6.6
2018-Feb-16 03:30N 50°30' W 000°25'1 2.2
2018-Feb-16 03:01N 50°30' W 000°23'1 1.0
2018-Feb-16 02:31N 50°31' W 000°23'1 1.1
2018-Feb-16 02:00N 50°31' W 000°22'0 0.9
2018-Feb-16 01:28N 50°32' W 000°22'0 0.7
2018-Feb-16 01:00N 50°32' W 000°21'0 0.4
2018-Feb-16 00:30N 50°32' W 000°21'0 0.3
2018-Feb-16 00:00N 50°32' W 000°21'0 0.7
2018-Feb-15 23:31N 50°32' W 000°22'1 1.3
2018-Feb-15 22:59N 50°32' W 000°23'1 1.6
2018-Feb-15 22:31N 50°32' W 000°24'1 1.4
2018-Feb-15 22:00N 50°33' W 000°25'3 5.7
2018-Feb-15 21:30N 50°32' W 000°20'3 5.4
2018-Feb-15 20:58N 50°32' W 000°16'1 2.5
2018-Feb-15 20:30N 50°32' W 000°18'1 2.1
2018-Feb-15 20:01N 50°32' W 000°20'1 1.7
2018-Feb-15 19:31N 50°33' W 000°20'4 7.0
2018-Feb-15 19:01N 50°32' W 000°14'4 7.6
2018-Feb-15 18:30N 50°31' W 000°08'4 8.0
2018-Feb-15 18:01N 50°32' W 000°02'4 8.3
2018-Feb-15 17:30N 50°33' E 000°05'4 8.8
2018-Feb-15 17:01N 50°34' E 000°11'5 9.2
2018-Feb-15 16:30N 50°35' E 000°18'5 9.2
2018-Feb-15 16:01N 50°37' E 000°25'5 9.4
2018-Feb-15 15:30N 50°38' E 000°32'5 9.2
2018-Feb-15 15:00N 50°40' E 000°38'5 9.7
2018-Feb-15 14:31N 50°43' E 000°45'510.4
2018-Feb-15 14:00N 50°46' E 000°52'5 9.8
2018-Feb-15 13:31N 50°49' E 000°58'5 9.3
2018-Feb-15 13:00N 50°51' E 001°04'4 8.7
2018-Feb-15 12:31N 50°54' E 001°09'4 8.2
2018-Feb-15 12:01N 50°57' E 001°14'4 7.9
2018-Feb-15 11:30N 50°60' E 001°19'4 6.9
2018-Feb-15 10:59N 51°02' E 001°23'3 5.7
2018-Feb-15 10:28N 51°04' E 001°27'3 6.2
2018-Feb-15 10:00N 51°06' E 001°30'3 6.9
2018-Feb-15 09:31N 51°08' E 001°35'4 8.0
2018-Feb-15 09:01N 51°10' E 001°39'5 9.7
2018-Feb-15 08:30N 51°14' E 001°45'611.6
2018-Feb-15 08:01N 51°19' E 001°49'611.5
2018-Feb-15 07:30N 51°24' E 001°53'611.4
2018-Feb-15 07:01N 51°29' E 001°59'611.2
2018-Feb-15 06:30N 51°33' E 002°05'510.6
2018-Feb-15 06:00N 51°37' E 002°10'510.1
2018-Feb-15 05:31N 51°40' E 002°16'5 9.8
2018-Feb-15 05:01N 51°44' E 002°21'5 9.1
2018-Feb-15 04:30N 51°48' E 002°26'4 7.1
2018-Feb-15 03:54N 51°51' E 002°30'2 5.9
2018-Feb-15 03:29N 51°54' E 002°29'4 7.0
2018-Feb-15 02:59N 51°56' E 002°25'3 6.6
2018-Feb-15 02:29N 51°58' E 002°21'2 2.5
2018-Feb-15 01:41N 51°57' E 002°18'2 4.0
2018-Feb-15 01:12N 51°55' E 002°18'1 4.1
2018-Feb-15 01:00N 51°54' E 002°17'2 3.9
2018-Feb-15 00:30N 51°52' E 002°17'1 1.1
2018-Feb-15 00:00N 51°52' E 002°17'1 2.6
2018-Feb-14 23:30N 51°53' E 002°17'1 2.8
2018-Feb-14 23:00N 51°51' E 002°17'1 2.4
2018-Feb-14 22:26N 51°50' E 002°17'1 3.2
2018-Feb-14 21:58N 51°51' E 002°17'5 6.9
2018-Feb-14 21:15N 51°56' E 002°17'1 3.4
2018-Feb-14 20:56N 51°57' E 002°18'2 1.6
2018-Feb-14 19:44N 51°56' E 002°16'0 1.5
2018-Feb-14 19:28N 51°55' E 002°16'1 1.3
2018-Feb-14 18:39N 51°56' E 002°18'1 2.1
2018-Feb-14 18:17N 51°55' E 002°17'1 1.8
2018-Feb-14 17:58N 51°55' E 002°17'6 7.0
2018-Feb-14 17:09N 51°53' E 002°08'1 8.6
2018-Feb-14 17:01N 51°52' E 002°07'4 8.4
2018-Feb-14 16:30N 51°51' E 002°00'4 8.9
2018-Feb-14 16:00N 51°49' E 001°54'4 8.6
2018-Feb-14 15:31N 51°47' E 001°47'3 5.0
2018-Feb-14 15:01N 51°49' E 001°44'3 5.5
2018-Feb-14 14:31N 51°52' E 001°43'3 5.5
2018-Feb-14 14:01N 51°54' E 001°41'1 1.2
2018-Feb-14 13:30N 51°55' E 001°41'0 0.0
2018-Feb-14 13:00N 51°55' E 001°41'0 0.0
2018-Feb-14 12:30N 51°55' E 001°41'0 0.0
2018-Feb-14 12:00N 51°55' E 001°41'0 0.0
2018-Feb-14 11:30N 51°55' E 001°41'0 0.1
2018-Feb-14 10:57N 51°55' E 001°41'0 0.1
2018-Feb-14 10:30N 51°55' E 001°41'0 0.4
2018-Feb-14 10:00N 51°54' E 001°40'0 0.2
2018-Feb-14 09:30N 51°54' E 001°40'0 0.1
2018-Feb-14 09:00N 51°54' E 001°40'0 0.0
2018-Feb-14 08:30N 51°54' E 001°41'0 0.0
2018-Feb-14 08:00N 51°54' E 001°41'0 0.0
2018-Feb-14 07:30N 51°54' E 001°41'0 0.2
2018-Feb-14 07:00N 51°54' E 001°40'0 0.2
2018-Feb-14 06:30N 51°54' E 001°40'0 0.2
2018-Feb-14 06:00N 51°54' E 001°41'0 0.1
2018-Feb-14 05:30N 51°55' E 001°41'0 0.0
2018-Feb-14 05:00N 51°55' E 001°41'0 0.1
2018-Feb-14 04:30N 51°55' E 001°41'0 0.0
2018-Feb-14 04:00N 51°55' E 001°41'0 0.0
2018-Feb-14 03:30N 51°55' E 001°41'0 0.1
2018-Feb-14 03:00N 51°55' E 001°41'0 0.7
2018-Feb-14 02:31N 51°55' E 001°41'2 3.8
2018-Feb-14 02:01N 51°53' E 001°40'5 9.2
2018-Feb-14 01:31N 51°50' E 001°34'816.8
2018-Feb-14 01:00N 51°43' E 001°29'1019.6
2018-Feb-14 00:30N 51°36' E 001°17'918.2
2018-Feb-14 00:00N 51°31' E 001°04'816.5
2018-Feb-13 23:30N 51°29' E 000°52'815.8
2018-Feb-13 23:00N 51°30' E 000°39'611.4
2018-Feb-13 22:31N 51°30' E 000°30'0 0.6
2018-Feb-13 22:01N 51°30' E 000°29'0 0.0
2018-Feb-13 21:31N 51°30' E 000°29'0 0.0
2018-Feb-13 21:01N 51°30' E 000°29'0 0.0
2018-Feb-13 20:31N 51°30' E 000°29'0 0.0
2018-Feb-13 20:01N 51°30' E 000°29'0 0.0
2018-Feb-13 19:31N 51°30' E 000°29'0 0.0
2018-Feb-13 19:01N 51°30' E 000°29'0 0.0
2018-Feb-13 18:31N 51°30' E 000°29'0 0.0
2018-Feb-13 18:00N 51°30' E 000°29'0 0.0
2018-Feb-13 17:30N 51°30' E 000°29'0 0.0
2018-Feb-13 17:01N 51°30' E 000°29'0 0.0
2018-Feb-13 16:31N 51°30' E 000°29'0 0.0
2018-Feb-13 16:01N 51°30' E 000°29'0 0.0
2018-Feb-13 15:31N 51°30' E 000°29'0 0.0
2018-Feb-13 15:00N 51°30' E 000°29'0 0.0
2018-Feb-13 14:31N 51°30' E 000°29'0 0.0
2018-Feb-13 14:01N 51°30' E 000°29'0 0.0
2018-Feb-13 13:31N 51°30' E 000°29'0 0.0
2018-Feb-13 13:00N 51°30' E 000°29'0 0.0
2018-Feb-13 12:31N 51°30' E 000°29'0 0.0
2018-Feb-13 12:01N 51°30' E 000°29'0 0.0
2018-Feb-13 11:31N 51°30' E 000°29'0 0.0
2018-Feb-13 11:01N 51°30' E 000°29'0 0.0
2018-Feb-13 10:31N 51°30' E 000°29'0 0.0
2018-Feb-13 10:01N 51°30' E 000°29'0 0.0
2018-Feb-13 09:30N 51°30' E 000°29'0 0.0
2018-Feb-13 09:00N 51°30' E 000°29'0 0.0
2018-Feb-13 08:30N 51°30' E 000°29'0 0.0
2018-Feb-13 08:00N 51°30' E 000°29'0 0.0
2018-Feb-13 07:31N 51°30' E 000°29'0 0.0
2018-Feb-13 07:01N 51°30' E 000°29'0 0.0
2018-Feb-13 06:31N 51°30' E 000°29'0 0.0
2018-Feb-13 06:01N 51°30' E 000°29'0 0.0
2018-Feb-13 05:31N 51°30' E 000°29'0 0.0
2018-Feb-13 05:01N 51°30' E 000°29'0 0.0
2018-Feb-13 04:31N 51°30' E 000°29'0 0.0
2018-Feb-13 04:01N 51°30' E 000°29'0 0.0
2018-Feb-13 03:31N 51°30' E 000°29'0 0.0
2018-Feb-13 03:00N 51°30' E 000°29'0 0.0
2018-Feb-13 02:29N 51°30' E 000°29'0 0.0
2018-Feb-13 02:01N 51°30' E 000°29'0 0.0
2018-Feb-13 01:31N 51°30' E 000°29'0 0.0
2018-Feb-13 01:00N 51°30' E 000°29'0 0.0
2018-Feb-13 00:30N 51°30' E 000°29'0 0.0
2018-Feb-13 00:00N 51°30' E 000°29'0 0.0
2018-Feb-12 23:30N 51°30' E 000°29'0 0.0
2018-Feb-12 23:00N 51°30' E 000°29'0 0.5
2018-Feb-12 22:31N 51°30' E 000°30'2 4.7
2018-Feb-12 22:00N 51°30' E 000°34'5 9.6
2018-Feb-12 21:31N 51°30' E 000°41'5 9.5
2018-Feb-12 21:00N 51°29' E 000°49'612.6
2018-Feb-12 20:30N 51°29' E 000°59'713.9
2018-Feb-12 20:00N 51°33' E 001°09'613.0
2018-Feb-12 19:30N 51°36' E 001°18'816.2
2018-Feb-12 19:01N 51°41' E 001°27'918.4
2018-Feb-12 18:30N 51°50' E 001°34'5 9.1
2018-Feb-12 18:00N 51°51' E 001°41'5 9.6
2018-Feb-12 17:31N 51°51' E 001°48'5 9.3
2018-Feb-12 17:00N 51°50' E 001°56'611.1
2018-Feb-12 16:30N 51°53' E 002°04'10 3.5
2018-Feb-12 13:48N 51°59' E 002°16'2 3.8
2018-Feb-12 13:21N 51°59' E 002°19'10 1.6
2018-Feb-12 07:23N 51°51' E 002°13'4 8.5
2018-Feb-12 06:55N 51°47' E 002°09'4 8.5
2018-Feb-12 06:30N 51°44' E 002°06'4 8.7
2018-Feb-12 06:00N 51°41' E 002°03'4 8.8
2018-Feb-12 05:30N 51°37' E 001°59'4 8.9
2018-Feb-12 05:00N 51°33' E 001°55'4 8.0
2018-Feb-12 04:30N 51°29' E 001°53'5 9.3
2018-Feb-12 04:00N 51°26' E 001°59'5 9.7
2018-Feb-12 03:30N 51°24' E 002°06'510.0
2018-Feb-12 03:00N 51°22' E 002°13'5 9.6
2018-Feb-12 02:30N 51°21' E 002°20'510.0
2018-Feb-12 02:00N 51°22' E 002°28'5 9.5
2018-Feb-12 01:30N 51°23' E 002°35'5 9.3
2018-Feb-12 01:00N 51°23' E 002°43'611.4
2018-Feb-12 00:30N 51°26' E 002°51'816.4
2018-Feb-12 00:00N 51°24' E 003°04'816.1
2018-Feb-11 23:31N 51°25' E 003°17'816.0
2018-Feb-11 23:00N 51°25' E 003°30'510.3
2018-Feb-11 22:30N 51°26' E 003°38'510.5
2018-Feb-11 22:00N 51°23' E 003°44'713.7
2018-Feb-11 21:31N 51°22' E 003°55'611.3
2018-Feb-11 21:01N 51°25' E 004°02'510.0
2018-Feb-11 20:31N 51°22' E 004°08'4 7.6
2018-Feb-11 20:00N 51°21' E 004°14'2 4.0
2018-Feb-11 19:30N 51°20' E 004°17'0 0.0
2018-Feb-11 18:57N 51°20' E 004°17'0 0.0
2018-Feb-11 18:31N 51°20' E 004°17'0 0.0
2018-Feb-11 18:01N 51°20' E 004°17'0 0.0
2018-Feb-11 17:31N 51°20' E 004°17'0 0.0
2018-Feb-11 17:00N 51°20' E 004°17'0 0.0
2018-Feb-11 16:31N 51°20' E 004°17'0 0.0
2018-Feb-11 16:01N 51°20' E 004°17'0 0.0
2018-Feb-11 15:30N 51°20' E 004°17'0 0.0
2018-Feb-11 15:01N 51°20' E 004°17'0 0.0
2018-Feb-11 14:30N 51°20' E 004°17'  
Track history (hours):
 
Tides and Currents Weather Stations Pressure Air Temp Water Temp Dewpoint Dewpoint Depression Visibility Wind Speed Wind Dir Waves Ship Positions

Torrente

Last reported at 2018-Feb-21 14:21 UTC. Time now 2018-Feb-22 20:45 UTC.
Position N 36°00' W 005°15'.

Length 300 m; draft 13.5 m.

Type: Ship (hazmat cat A). MMSI: 636014649.

Date/timePositionNaut miles runAvg speedWind from/ knotsBaromVisibWave heightAir tempDewpointWater temp
2018-Feb-21 14:21N 36°00' W 005°15'822.8
2018-Feb-21 14:00N 35°58' W 005°24'6 0.5
2018-Feb-21 03:07N 35°54' W 005°29'0 0.0
2018-Feb-21 02:59N 35°54' W 005°29'0 0.0
2018-Feb-20 23:11N 35°54' W 005°29'0 0.1
2018-Feb-20 22:59N 35°54' W 005°29'155 5.3
2018-Feb-19 17:37N 36°25' W 008°38'1711.1
2018-Feb-19 16:05N 36°29' W 008°58'110.7
2018-Feb-19 16:00N 36°30' W 008°59'2810.4
2018-Feb-19 13:17N 36°44' W 009°29'311.0
2018-Feb-19 12:59N 36°47' W 009°32'710.5
2018-Feb-19 12:20N 36°54' W 009°35'1911.1
2018-Feb-19 10:39N 37°12' W 009°40'211.0
2018-Feb-19 10:30N 37°13' W 009°40'511.0
2018-Feb-19 10:00N 37°19' W 009°42'611.7
2018-Feb-19 09:31N 37°24' W 009°44'611.8
2018-Feb-19 09:00N 37°30' W 009°45'612.0
2018-Feb-19 08:30N 37°36' W 009°47'611.8
2018-Feb-19 08:01N 37°41' W 009°49'611.9
2018-Feb-19 07:30N 37°47' W 009°51'611.7
2018-Feb-19 07:00N 37°53' W 009°53'611.8
2018-Feb-19 06:30N 37°59' W 009°55'611.5
2018-Feb-19 06:00N 38°04' W 009°57'611.5
2018-Feb-19 05:30N 38°10' W 009°57'611.9
2018-Feb-19 05:00N 38°16' W 009°59'611.9
2018-Feb-19 04:30N 38°21' W 010°01'612.0
2018-Feb-19 04:01N 38°27' W 010°04'611.8
2018-Feb-19 03:30N 38°33' W 010°05'611.9
2018-Feb-19 03:00N 38°39' W 010°06'611.9
2018-Feb-19 02:31N 38°45' W 010°06'611.9
2018-Feb-19 02:01N 38°51' W 010°06'611.7
2018-Feb-19 01:30N 38°57' W 010°06'611.9
2018-Feb-19 01:00N 39°02' W 010°06'612.2
2018-Feb-19 00:31N 39°08' W 010°06'612.1
2018-Feb-19 00:00N 39°15' W 010°06'611.9
2018-Feb-18 23:30N 39°20' W 010°07'611.5
2018-Feb-18 23:00N 39°26' W 010°07'611.6
2018-Feb-18 22:30N 39°32' W 010°07'611.5
2018-Feb-18 22:00N 39°38' W 010°07'611.6
2018-Feb-18 21:31N 39°43' W 010°07'611.5
2018-Feb-18 21:00N 39°49' W 010°07'611.5
2018-Feb-18 20:30N 39°55' W 010°06'611.7
2018-Feb-18 20:00N 40°01' W 010°06'54813.1
2018-Feb-17 02:09N 48°40' W 005°60'213.8
2018-Feb-17 02:00N 48°42' W 005°58'713.9
2018-Feb-17 01:30N 48°48' W 005°53'11412.5
2018-Feb-16 16:21N 49°48' W 003°24'511.6
2018-Feb-16 15:54N 49°51' W 003°18'512.4
2018-Feb-16 15:30N 49°54' W 003°11'713.0
2018-Feb-16 15:00N 49°57' W 003°03'713.7
2018-Feb-16 14:30N 50°00' W 002°53'714.5
2018-Feb-16 14:00N 50°02' W 002°42'814.8
2018-Feb-16 13:30N 50°05' W 002°31'1114.5
2018-Feb-16 12:45N 50°08' W 002°14'414.0
2018-Feb-16 12:29N 50°09' W 002°09'613.3
2018-Feb-16 12:00N 50°10' W 001°59'612.3
2018-Feb-16 11:30N 50°12' W 001°50'611.3
2018-Feb-16 11:00N 50°13' W 001°41'510.5
2018-Feb-16 10:30N 50°15' W 001°34'5 9.4
2018-Feb-16 10:00N 50°16' W 001°27'4 8.8
2018-Feb-16 09:30N 50°17' W 001°20'4 8.3
2018-Feb-16 08:59N 50°19' W 001°14'16 8.3
2018-Feb-16 07:03N 50°23' W 000°49'0 9.6
2018-Feb-16 07:00N 50°23' W 000°49'610.4
2018-Feb-16 06:27N 50°25' W 000°40'510.8
2018-Feb-16 06:00N 50°27' W 000°33'511.0
2018-Feb-16 05:30N 50°31' W 000°26'3 6.9
2018-Feb-16 05:00N 50°33' W 000°22'0 0.4
2018-Feb-16 04:31N 50°33' W 000°22'1 1.4
2018-Feb-16 04:01N 50°32' W 000°21'3 6.6
2018-Feb-16 03:30N 50°30' W 000°25'1 2.2
2018-Feb-16 03:01N 50°30' W 000°23'1 1.0
2018-Feb-16 02:31N 50°31' W 000°23'1 1.1
2018-Feb-16 02:00N 50°31' W 000°22'0 0.9
2018-Feb-16 01:28N 50°32' W 000°22'0 0.7
2018-Feb-16 01:00N 50°32' W 000°21'0 0.4
2018-Feb-16 00:30N 50°32' W 000°21'0 0.3
2018-Feb-16 00:00N 50°32' W 000°21'0 0.7
2018-Feb-15 23:31N 50°32' W 000°22'1 1.3
2018-Feb-15 22:59N 50°32' W 000°23'1 1.6
2018-Feb-15 22:31N 50°32' W 000°24'1 1.4
2018-Feb-15 22:00N 50°33' W 000°25'3 5.7
2018-Feb-15 21:30N 50°32' W 000°20'3 5.4
2018-Feb-15 20:58N 50°32' W 000°16'1 2.5
2018-Feb-15 20:30N 50°32' W 000°18'1 2.1
2018-Feb-15 20:01N 50°32' W 000°20'1 1.7
2018-Feb-15 19:31N 50°33' W 000°20'4 7.0
2018-Feb-15 19:01N 50°32' W 000°14'4 7.6
2018-Feb-15 18:30N 50°31' W 000°08'4 8.0
2018-Feb-15 18:01N 50°32' W 000°02'4 8.3
2018-Feb-15 17:30N 50°33' E 000°05'4 8.8
2018-Feb-15 17:01N 50°34' E 000°11'5 9.2
2018-Feb-15 16:30N 50°35' E 000°18'5 9.2
2018-Feb-15 16:01N 50°37' E 000°25'5 9.4
2018-Feb-15 15:30N 50°38' E 000°32'5 9.2
2018-Feb-15 15:00N 50°40' E 000°38'5 9.7
2018-Feb-15 14:31N 50°43' E 000°45'510.4
2018-Feb-15 14:00N 50°46' E 000°52'5 9.8
2018-Feb-15 13:31N 50°49' E 000°58'5 9.3
2018-Feb-15 13:00N 50°51' E 001°04'4 8.7
2018-Feb-15 12:31N 50°54' E 001°09'4 8.2
2018-Feb-15 12:01N 50°57' E 001°14'4 7.9
2018-Feb-15 11:30N 50°60' E 001°19'4 6.9
2018-Feb-15 10:59N 51°02' E 001°23'3 5.7
2018-Feb-15 10:28N 51°04' E 001°27'3 6.2
2018-Feb-15 10:00N 51°06' E 001°30'3 6.9
2018-Feb-15 09:31N 51°08' E 001°35'4 8.0
2018-Feb-15 09:01N 51°10' E 001°39'5 9.7
2018-Feb-15 08:30N 51°14' E 001°45'611.6
2018-Feb-15 08:01N 51°19' E 001°49'611.5
2018-Feb-15 07:30N 51°24' E 001°53'611.4
2018-Feb-15 07:01N 51°29' E 001°59'611.2
2018-Feb-15 06:30N 51°33' E 002°05'510.6
2018-Feb-15 06:00N 51°37' E 002°10'510.1
2018-Feb-15 05:31N 51°40' E 002°16'5 9.8
2018-Feb-15 05:01N 51°44' E 002°21'5 9.1
2018-Feb-15 04:30N 51°48' E 002°26'4 7.1
2018-Feb-15 03:54N 51°51' E 002°30'2 5.9
2018-Feb-15 03:29N 51°54' E 002°29'4 7.0
2018-Feb-15 02:59N 51°56' E 002°25'3 6.6
2018-Feb-15 02:29N 51°58' E 002°21'2 2.5
2018-Feb-15 01:41N 51°57' E 002°18'2 4.0
2018-Feb-15 01:12N 51°55' E 002°18'1 4.1
2018-Feb-15 01:00N 51°54' E 002°17'2 3.9
2018-Feb-15 00:30N 51°52' E 002°17'1 1.1
2018-Feb-15 00:00N 51°52' E 002°17'1 2.6
2018-Feb-14 23:30N 51°53' E 002°17'1 2.8
2018-Feb-14 23:00N 51°51' E 002°17'1 2.4
2018-Feb-14 22:26N 51°50' E 002°17'1 3.2
2018-Feb-14 21:58N 51°51' E 002°17'5 6.9
2018-Feb-14 21:15N 51°56' E 002°17'1 3.4
2018-Feb-14 20:56N 51°57' E 002°18'2 1.6
2018-Feb-14 19:44N 51°56' E 002°16'0 1.5
2018-Feb-14 19:28N 51°55' E 002°16'1 1.3
2018-Feb-14 18:39N 51°56' E 002°18'1 2.1
2018-Feb-14 18:17N 51°55' E 002°17'1 1.8
2018-Feb-14 17:58N 51°55' E 002°17'6 7.0
2018-Feb-14 17:09N 51°53' E 002°08'1 8.6
2018-Feb-14 17:01N 51°52' E 002°07'4 8.4
2018-Feb-14 16:30N 51°51' E 002°00'4 8.9
2018-Feb-14 16:00N 51°49' E 001°54'4 8.6
2018-Feb-14 15:31N 51°47' E 001°47'3 5.0
2018-Feb-14 15:01N 51°49' E 001°44'3 5.5
2018-Feb-14 14:31N 51°52' E 001°43'3 5.5
2018-Feb-14 14:01N 51°54' E 001°41'1 1.2
2018-Feb-14 13:30N 51°55' E 001°41'0 0.0
2018-Feb-14 13:00N 51°55' E 001°41'0 0.0
2018-Feb-14 12:30N 51°55' E 001°41'0 0.0
2018-Feb-14 12:00N 51°55' E 001°41'0 0.0
2018-Feb-14 11:30N 51°55' E 001°41'0 0.1
2018-Feb-14 10:57N 51°55' E 001°41'0 0.1
2018-Feb-14 10:30N 51°55' E 001°41'0 0.4
2018-Feb-14 10:00N 51°54' E 001°40'0 0.2
2018-Feb-14 09:30N 51°54' E 001°40'0 0.1
2018-Feb-14 09:00N 51°54' E 001°40'0 0.0
2018-Feb-14 08:30N 51°54' E 001°41'0 0.0
2018-Feb-14 08:00N 51°54' E 001°41'0 0.0
2018-Feb-14 07:30N 51°54' E 001°41'0 0.2
2018-Feb-14 07:00N 51°54' E 001°40'0 0.2
2018-Feb-14 06:30N 51°54' E 001°40'0 0.2
2018-Feb-14 06:00N 51°54' E 001°41'0 0.1
2018-Feb-14 05:30N 51°55' E 001°41'0 0.0
2018-Feb-14 05:00N 51°55' E 001°41'0 0.1
2018-Feb-14 04:30N 51°55' E 001°41'0 0.0
2018-Feb-14 04:00N 51°55' E 001°41'0 0.0
2018-Feb-14 03:30N 51°55' E 001°41'0 0.1
2018-Feb-14 03:00N 51°55' E 001°41'0 0.7
2018-Feb-14 02:31N 51°55' E 001°41'2 3.8
2018-Feb-14 02:01N 51°53' E 001°40'5 9.2
2018-Feb-14 01:31N 51°50' E 001°34'816.8
2018-Feb-14 01:00N 51°43' E 001°29'1019.6
2018-Feb-14 00:30N 51°36' E 001°17'918.2
2018-Feb-14 00:00N 51°31' E 001°04'816.5
2018-Feb-13 23:30N 51°29' E 000°52'815.8
2018-Feb-13 23:00N 51°30' E 000°39'611.4
2018-Feb-13 22:31N 51°30' E 000°30'0 0.6
2018-Feb-13 22:01N 51°30' E 000°29'0 0.0
2018-Feb-13 21:31N 51°30' E 000°29'0 0.0
2018-Feb-13 21:01N 51°30' E 000°29'0 0.0
2018-Feb-13 20:31N 51°30' E 000°29'0 0.0
2018-Feb-13 20:01N 51°30' E 000°29'0 0.0
2018-Feb-13 19:31N 51°30' E 000°29'0 0.0
2018-Feb-13 19:01N 51°30' E 000°29'0 0.0
2018-Feb-13 18:31N 51°30' E 000°29'0 0.0
2018-Feb-13 18:00N 51°30' E 000°29'0 0.0
2018-Feb-13 17:30N 51°30' E 000°29'0 0.0
2018-Feb-13 17:01N 51°30' E 000°29'0 0.0
2018-Feb-13 16:31N 51°30' E 000°29'0 0.0
2018-Feb-13 16:01N 51°30' E 000°29'0 0.0
2018-Feb-13 15:31N 51°30' E 000°29'0 0.0
2018-Feb-13 15:00N 51°30' E 000°29'0 0.0
2018-Feb-13 14:31N 51°30' E 000°29'0 0.0
2018-Feb-13 14:01N 51°30' E 000°29'0 0.0
2018-Feb-13 13:31N 51°30' E 000°29'0 0.0
2018-Feb-13 13:00N 51°30' E 000°29'0 0.0
2018-Feb-13 12:31N 51°30' E 000°29'0 0.0
2018-Feb-13 12:01N 51°30' E 000°29'0 0.0
2018-Feb-13 11:31N 51°30' E 000°29'0 0.0
2018-Feb-13 11:01N 51°30' E 000°29'0 0.0
2018-Feb-13 10:31N 51°30' E 000°29'0 0.0
2018-Feb-13 10:01N 51°30' E 000°29'0 0.0
2018-Feb-13 09:30N 51°30' E 000°29'0 0.0
2018-Feb-13 09:00N 51°30' E 000°29'0 0.0
2018-Feb-13 08:30N 51°30' E 000°29'0 0.0
2018-Feb-13 08:00N 51°30' E 000°29'0 0.0
2018-Feb-13 07:31N 51°30' E 000°29'0 0.0
2018-Feb-13 07:01N 51°30' E 000°29'0 0.0
2018-Feb-13 06:31N 51°30' E 000°29'0 0.0
2018-Feb-13 06:01N 51°30' E 000°29'0 0.0
2018-Feb-13 05:31N 51°30' E 000°29'0 0.0
2018-Feb-13 05:01N 51°30' E 000°29'0 0.0
2018-Feb-13 04:31N 51°30' E 000°29'0 0.0
2018-Feb-13 04:01N 51°30' E 000°29'0 0.0
2018-Feb-13 03:31N 51°30' E 000°29'0 0.0
2018-Feb-13 03:00N 51°30' E 000°29'0 0.0
2018-Feb-13 02:29N 51°30' E 000°29'0 0.0
2018-Feb-13 02:01N 51°30' E 000°29'0 0.0
2018-Feb-13 01:31N 51°30' E 000°29'0 0.0
2018-Feb-13 01:00N 51°30' E 000°29'0 0.0
2018-Feb-13 00:30N 51°30' E 000°29'0 0.0
2018-Feb-13 00:00N 51°30' E 000°29'0 0.0
2018-Feb-12 23:30N 51°30' E 000°29'0 0.0
2018-Feb-12 23:00N 51°30' E 000°29'0 0.5
2018-Feb-12 22:31N 51°30' E 000°30'2 4.7
2018-Feb-12 22:00N 51°30' E 000°34'5 9.6
2018-Feb-12 21:31N 51°30' E 000°41'5 9.5
2018-Feb-12 21:00N 51°29' E 000°49'612.6
2018-Feb-12 20:30N 51°29' E 000°59'713.9
2018-Feb-12 20:00N 51°33' E 001°09'613.0
2018-Feb-12 19:30N 51°36' E 001°18'816.2
2018-Feb-12 19:01N 51°41' E 001°27'918.4
2018-Feb-12 18:30N 51°50' E 001°34'5 9.1
2018-Feb-12 18:00N 51°51' E 001°41'5 9.6
2018-Feb-12 17:31N 51°51' E 001°48'5 9.3
2018-Feb-12 17:00N 51°50' E 001°56'611.1
2018-Feb-12 16:30N 51°53' E 002°04'10 3.5
2018-Feb-12 13:48N 51°59' E 002°16'2 3.8
2018-Feb-12 13:21N 51°59' E 002°19'10 1.6
2018-Feb-12 07:23N 51°51' E 002°13'4 8.5
2018-Feb-12 06:55N 51°47' E 002°09'4 8.5
2018-Feb-12 06:30N 51°44' E 002°06'4 8.7
2018-Feb-12 06:00N 51°41' E 002°03'4 8.8
2018-Feb-12 05:30N 51°37' E 001°59'4 8.9
2018-Feb-12 05:00N 51°33' E 001°55'4 8.0
2018-Feb-12 04:30N 51°29' E 001°53'5 9.3
2018-Feb-12 04:00N 51°26' E 001°59'5 9.7
2018-Feb-12 03:30N 51°24' E 002°06'510.0
2018-Feb-12 03:00N 51°22' E 002°13'5 9.6
2018-Feb-12 02:30N 51°21' E 002°20'510.0
2018-Feb-12 02:00N 51°22' E 002°28'5 9.5
2018-Feb-12 01:30N 51°23' E 002°35'5 9.3
2018-Feb-12 01:00N 51°23' E 002°43'611.4
2018-Feb-12 00:30N 51°26' E 002°51'816.4
2018-Feb-12 00:00N 51°24' E 003°04'816.1
2018-Feb-11 23:31N 51°25' E 003°17'816.0
2018-Feb-11 23:00N 51°25' E 003°30'510.3
2018-Feb-11 22:30N 51°26' E 003°38'510.5
2018-Feb-11 22:00N 51°23' E 003°44'713.7
2018-Feb-11 21:31N 51°22' E 003°55'611.3
2018-Feb-11 21:01N 51°25' E 004°02'510.0
2018-Feb-11 20:31N 51°22' E 004°08'4 7.6
2018-Feb-11 20:00N 51°21' E 004°14'2 4.0
2018-Feb-11 19:30N 51°20' E 004°17'0 0.0
2018-Feb-11 18:57N 51°20' E 004°17'0 0.0
2018-Feb-11 18:31N 51°20' E 004°17'0 0.0
2018-Feb-11 18:01N 51°20' E 004°17'0 0.0
2018-Feb-11 17:31N 51°20' E 004°17'0 0.0
2018-Feb-11 17:00N 51°20' E 004°17'0 0.0
2018-Feb-11 16:31N 51°20' E 004°17'0 0.0
2018-Feb-11 16:01N 51°20' E 004°17'0 0.0
2018-Feb-11 15:30N 51°20' E 004°17'0 0.0
2018-Feb-11 15:01N 51°20' E 004°17'0 0.0
2018-Feb-11 14:30N 51°20' E 004°17'  

Dump ship's entire track history